KHUM/HUM METAR and TAF weather

Enter ICAO airport designator
Station Type Date Time Source
KHUM METAR 2019/04/24 15:47 UTC NOAA

KHUM 241547Z 15010KT 7SM BKN011 BKN027 24/21 A3002


Station Type Date Time Source
KHUM Decoded METAR 2019/04/24 15:47 UTC NOAA

Houma-Terrebonne, LA, United States (KHUM) 29-34N 090-40W
Apr 24, 2019 - 11:47 AM EDT / 2019.04.24 1547 UTC
Wind: from the SSE (150 degrees) at 12 MPH (10 KT):0
Visibility: 7 mile(s):0
Sky conditions: mostly cloudy
Temperature: 75 F (24 C)
Dew Point: 69 F (21 C)
Relative Humidity: 83%
Pressure (altimeter): 30.02 in. Hg (1016 hPa)
ob: KHUM 241547Z 15010KT 7SM BKN011 BKN027 24/21 A3002
cycle: 16

Station Type Date Time Source
KHUM TAF 2019/04/24 16:10 UTC NOAA

TAF
AMD KHUM 241608Z 2416/2512 15010KT P6SM SCT011 BKN027
TEMPO 2416/2417 BKN011
FM241800 15010KT P6SM SCT025 BKN200
FM242300 15011KT P6SM FEW050 SCT120

Example: see airport list